createdAt,value
2023-02-08T00:00:43.559Z,0.00
2023-02-08T00:01:43.578Z,0.00
2023-02-08T00:02:43.564Z,0.00
2023-02-08T00:03:43.564Z,0.00
2023-02-08T00:04:43.534Z,0.00
2023-02-08T00:05:43.515Z,0.00
2023-02-08T00:06:43.504Z,0.00
2023-02-08T00:07:43.497Z,0.00
2023-02-08T00:08:43.521Z,0.00
2023-02-08T00:09:43.485Z,0.00
2023-02-08T00:10:43.718Z,0.00
2023-02-08T00:11:43.472Z,0.00
2023-02-08T00:12:43.445Z,0.00
2023-02-08T00:13:43.459Z,0.00
2023-02-08T00:14:43.425Z,0.00
2023-02-08T00:15:43.479Z,0.00
2023-02-08T00:16:43.400Z,0.00
2023-02-08T00:17:43.421Z,0.00
2023-02-08T00:18:43.401Z,0.00
2023-02-08T00:19:43.394Z,0.00
2023-02-08T00:20:43.376Z,0.00
2023-02-08T00:21:43.367Z,0.00
2023-02-08T00:22:43.338Z,0.00
2023-02-08T00:23:43.354Z,0.00
2023-02-08T00:24:43.339Z,0.00
2023-02-08T00:25:43.326Z,0.00
2023-02-08T00:26:43.292Z,0.00
2023-02-08T00:27:43.310Z,0.00
2023-02-08T00:28:43.282Z,0.00
2023-02-08T00:29:43.291Z,0.00
2023-02-08T00:30:43.752Z,0.00
2023-02-08T00:31:43.284Z,0.00
2023-02-08T00:32:43.235Z,0.00
2023-02-08T00:33:43.230Z,0.00
2023-02-08T00:34:43.228Z,0.00
2023-02-08T00:35:43.244Z,0.00
2023-02-08T00:36:43.248Z,0.00
2023-02-08T00:37:43.189Z,0.00
2023-02-08T00:38:43.177Z,0.00
2023-02-08T00:39:43.193Z,0.00
2023-02-08T00:40:43.157Z,0.00
2023-02-08T00:41:43.149Z,0.00
2023-02-08T00:42:43.136Z,0.00
2023-02-08T00:43:43.136Z,0.00
2023-02-08T00:44:43.133Z,0.00
2023-02-08T00:45:43.116Z,0.00
2023-02-08T00:46:43.181Z,0.00
2023-02-08T00:47:43.090Z,0.00
2023-02-08T00:48:43.076Z,0.00
2023-02-08T00:49:43.080Z,0.00
2023-02-08T00:50:43.046Z,0.00
2023-02-08T00:51:43.097Z,0.00
2023-02-08T00:52:43.065Z,0.00
2023-02-08T00:53:43.030Z,0.00
2023-02-08T00:54:43.030Z,0.00
2023-02-08T00:55:43.015Z,0.00
2023-02-08T00:56:42.992Z,0.00
2023-02-08T00:57:43.005Z,0.00
2023-02-08T00:58:42.990Z,0.00
2023-02-08T00:59:43.051Z,0.00
2023-02-08T01:00:43.035Z,0.00
2023-02-08T01:01:42.992Z,0.00
2023-02-08T01:02:42.931Z,0.00
2023-02-08T01:03:42.942Z,0.00
2023-02-08T01:04:42.914Z,0.00
2023-02-08T01:05:42.901Z,0.00
2023-02-08T01:06:42.909Z,0.00
2023-02-08T01:07:42.908Z,0.00
2023-02-08T01:08:42.870Z,0.00
2023-02-08T01:09:42.873Z,0.00
2023-02-08T01:10:42.856Z,0.00
2023-02-08T01:11:42.861Z,0.00
2023-02-08T01:12:42.854Z,0.00
2023-02-08T01:13:42.833Z,0.00
2023-02-08T01:14:42.815Z,0.00
2023-02-08T01:15:42.809Z,0.00
2023-02-08T01:16:42.806Z,0.00
2023-02-08T01:17:42.796Z,0.00
2023-02-08T01:18:42.776Z,0.00
2023-02-08T01:19:42.771Z,0.00
2023-02-08T01:20:42.766Z,0.00
2023-02-08T01:21:42.754Z,0.00
2023-02-08T01:22:42.728Z,0.00
2023-02-08T01:23:42.742Z,0.00
2023-02-08T01:24:42.705Z,0.00
2023-02-08T01:25:42.717Z,0.00
2023-02-08T01:26:42.717Z,0.00
2023-02-08T01:27:42.707Z,0.00
2023-02-08T01:28:42.674Z,0.00
2023-02-08T01:29:42.668Z,0.00
2023-02-08T01:30:43.237Z,0.00
2023-02-08T01:31:42.750Z,0.00
2023-02-08T01:32:42.646Z,0.00
2023-02-08T01:33:42.639Z,0.00
2023-02-08T01:34:44.170Z,0.00
2023-02-08T01:35:42.616Z,0.00
2023-02-08T01:36:42.607Z,0.00
2023-02-08T01:37:42.613Z,0.00
2023-02-08T01:38:42.591Z,0.00
2023-02-08T01:39:42.605Z,0.00
2023-02-08T01:40:42.654Z,0.00
2023-02-08T01:41:42.696Z,0.00
2023-02-08T01:42:42.522Z,0.00
2023-02-08T01:43:42.555Z,0.00
2023-02-08T01:44:42.511Z,0.00
2023-02-08T01:45:42.513Z,0.00
2023-02-08T01:46:42.511Z,0.00
2023-02-08T01:47:42.550Z,0.00
2023-02-08T01:48:42.493Z,0.00
2023-02-08T01:49:42.494Z,0.00
2023-02-08T01:50:42.639Z,0.00
2023-02-08T01:51:42.457Z,0.00
2023-02-08T01:52:42.432Z,0.00
2023-02-08T01:53:42.435Z,0.00
2023-02-08T01:54:42.408Z,0.00
2023-02-08T01:55:42.429Z,0.00
2023-02-08T01:56:42.376Z,0.00
2023-02-08T01:57:42.392Z,0.00
2023-02-08T01:58:42.381Z,0.00
2023-02-08T01:59:42.363Z,0.00
2023-02-08T02:00:42.837Z,0.00
2023-02-08T02:01:42.355Z,0.00
2023-02-08T02:02:42.320Z,0.00
2023-02-08T02:03:42.381Z,0.00
2023-02-08T02:04:42.331Z,0.00
2023-02-08T02:05:42.296Z,0.00
2023-02-08T02:06:42.287Z,0.00
2023-02-08T02:07:42.285Z,0.00
2023-02-08T02:08:42.279Z,0.00
2023-02-08T02:09:42.273Z,0.00
2023-02-08T02:10:42.693Z,0.00
2023-02-08T02:11:42.267Z,0.00
2023-02-08T02:12:42.880Z,0.00
2023-02-08T02:13:42.214Z,0.00
2023-02-08T02:14:42.255Z,0.00
2023-02-08T02:15:42.235Z,0.00
2023-02-08T02:16:42.265Z,0.00
2023-02-08T02:17:42.186Z,0.00
2023-02-08T02:18:42.159Z,0.00
2023-02-08T02:19:42.188Z,0.00
2023-02-08T02:20:42.602Z,0.00
2023-02-08T02:21:42.144Z,0.00
2023-02-08T02:22:42.217Z,0.00
2023-02-08T02:23:42.137Z,0.00
2023-02-08T02:24:42.139Z,0.00
2023-02-08T02:25:42.111Z,0.00
2023-02-08T02:26:42.098Z,0.00
2023-02-08T02:27:42.094Z,0.00
2023-02-08T02:28:42.078Z,0.00
2023-02-08T02:29:42.066Z,0.00
2023-02-08T02:30:42.500Z,0.00
2023-02-08T02:31:42.076Z,0.00
2023-02-08T02:32:42.019Z,0.00
2023-02-08T02:33:42.017Z,0.00
2023-02-08T02:34:41.995Z,0.00
2023-02-08T02:35:42.026Z,0.00
2023-02-08T02:36:41.997Z,0.00
2023-02-08T02:37:41.975Z,0.00
2023-02-08T02:38:41.966Z,0.00
2023-02-08T02:39:41.975Z,0.00
2023-02-08T02:40:42.322Z,0.00
2023-02-08T02:41:41.940Z,0.00
2023-02-08T02:42:41.915Z,0.00
2023-02-08T02:43:41.942Z,0.00
2023-02-08T02:44:41.937Z,0.00
2023-02-08T02:45:41.945Z,0.00
2023-02-08T02:46:41.892Z,0.00
2023-02-08T02:47:41.889Z,0.00
2023-02-08T02:48:41.878Z,0.00
2023-02-08T02:49:41.901Z,0.00
2023-02-08T02:50:42.101Z,0.00
2023-02-08T02:51:41.849Z,0.00
2023-02-08T02:52:41.834Z,0.00
2023-02-08T02:53:41.822Z,0.00
2023-02-08T02:54:41.817Z,0.00
2023-02-08T02:55:41.856Z,0.00
2023-02-08T02:56:41.789Z,0.00
2023-02-08T02:57:41.801Z,0.00
2023-02-08T02:58:41.763Z,0.00
2023-02-08T02:59:41.782Z,0.00
2023-02-08T03:00:42.100Z,0.00
2023-02-08T03:01:41.743Z,0.00
2023-02-08T03:02:41.744Z,0.00
2023-02-08T03:03:41.745Z,0.00
2023-02-08T03:04:41.711Z,0.00
2023-02-08T03:05:41.699Z,0.00
2023-02-08T03:06:41.690Z,0.00
2023-02-08T03:07:41.687Z,0.00
2023-02-08T03:08:41.684Z,0.00
2023-02-08T03:09:41.675Z,0.00
2023-02-08T03:10:41.871Z,0.00
2023-02-08T03:11:41.662Z,0.00
2023-02-08T03:12:41.636Z,0.00
2023-02-08T03:13:41.635Z,0.00
2023-02-08T03:14:41.617Z,0.00
2023-02-08T03:15:41.638Z,0.00
2023-02-08T03:16:41.626Z,0.00
2023-02-08T03:17:41.613Z,0.00
2023-02-08T03:18:41.567Z,0.00
2023-02-08T03:19:41.568Z,0.00
2023-02-08T03:20:41.938Z,0.00
2023-02-08T03:21:41.548Z,0.00
2023-02-08T03:22:41.553Z,0.00
2023-02-08T03:23:41.541Z,0.00
2023-02-08T03:24:41.507Z,0.00
2023-02-08T03:25:41.517Z,0.00
2023-02-08T03:26:42.358Z,0.00
2023-02-08T03:27:41.558Z,0.00
2023-02-08T03:28:41.506Z,0.00
2023-02-08T03:29:41.468Z,0.00
2023-02-08T03:30:41.950Z,0.00
2023-02-08T03:31:41.521Z,0.00
2023-02-08T03:32:41.444Z,0.00
2023-02-08T03:33:41.426Z,0.00
2023-02-08T03:34:41.401Z,0.00
2023-02-08T03:35:41.414Z,0.00
2023-02-08T03:36:41.402Z,0.00
2023-02-08T03:37:41.400Z,0.00
2023-02-08T03:38:41.393Z,0.00
2023-02-08T03:39:41.378Z,0.00
2023-02-08T03:40:41.710Z,0.00
2023-02-08T03:41:41.355Z,0.00
2023-02-08T03:42:41.342Z,0.00
2023-02-08T03:43:41.357Z,0.00
2023-02-08T03:44:41.315Z,0.00
2023-02-08T03:45:41.326Z,0.00
2023-02-08T03:46:41.289Z,0.00
2023-02-08T03:47:41.289Z,0.00
2023-02-08T03:48:41.294Z,0.00
2023-02-08T03:49:41.292Z,0.00
2023-02-08T03:50:41.576Z,0.00
2023-02-08T03:51:41.264Z,0.00
2023-02-08T03:52:41.238Z,0.00
2023-02-08T03:53:41.236Z,0.00
2023-02-08T03:54:41.212Z,0.00
2023-02-08T03:55:41.211Z,0.00
2023-02-08T03:56:41.190Z,0.00
2023-02-08T03:57:41.200Z,0.00
2023-02-08T03:58:41.184Z,0.00
2023-02-08T03:59:41.182Z,0.00
2023-02-08T04:00:41.419Z,0.00
2023-02-08T04:01:41.214Z,0.00
2023-02-08T04:02:41.166Z,0.00
2023-02-08T04:03:41.199Z,0.00
2023-02-08T04:04:41.111Z,0.00
2023-02-08T04:05:41.102Z,0.00
2023-02-08T04:06:41.096Z,0.00
2023-02-08T04:07:41.099Z,0.00
2023-02-08T04:08:41.097Z,0.00
2023-02-08T04:09:41.064Z,0.00
2023-02-08T04:10:41.385Z,0.00
2023-02-08T04:11:41.029Z,0.00
2023-02-08T04:12:41.031Z,0.00
2023-02-08T04:13:41.034Z,0.00
2023-02-08T04:14:41.031Z,0.00
2023-02-08T04:15:41.062Z,0.00
2023-02-08T04:16:41.000Z,0.00
2023-02-08T04:17:40.972Z,0.00
2023-02-08T04:18:40.993Z,0.00
2023-02-08T04:19:40.944Z,0.00
2023-02-08T04:20:41.219Z,0.00
2023-02-08T04:21:40.976Z,0.00
2023-02-08T04:22:40.932Z,0.00
2023-02-08T04:23:40.945Z,0.00
2023-02-08T04:24:40.914Z,0.00
2023-02-08T04:25:40.896Z,0.00
2023-02-08T04:26:40.906Z,0.00
2023-02-08T04:27:40.920Z,0.00
2023-02-08T04:28:40.873Z,0.00
2023-02-08T04:29:40.880Z,0.00
2023-02-08T04:30:41.217Z,0.00
2023-02-08T04:31:40.903Z,0.00
2023-02-08T04:32:40.841Z,0.00
2023-02-08T04:33:40.820Z,0.00
2023-02-08T04:34:40.879Z,0.00
2023-02-08T04:35:40.796Z,0.00
2023-02-08T04:36:40.797Z,0.00
2023-02-08T04:37:40.788Z,0.00
2023-02-08T04:38:40.782Z,0.00
2023-02-08T04:39:40.790Z,0.00
2023-02-08T04:40:41.207Z,0.00
2023-02-08T04:41:40.746Z,0.00
2023-02-08T04:42:40.747Z,0.00
2023-02-08T04:43:40.730Z,0.00
2023-02-08T04:44:40.736Z,0.00
2023-02-08T04:45:40.720Z,0.00
2023-02-08T04:46:40.802Z,0.00
2023-02-08T04:47:40.680Z,0.00
2023-02-08T04:48:40.694Z,0.00
2023-02-08T04:49:40.660Z,0.00
2023-02-08T04:50:41.222Z,0.00
2023-02-08T04:51:40.661Z,0.00
2023-02-08T04:52:40.637Z,0.00
2023-02-08T04:53:40.628Z,0.00
2023-02-08T04:54:41.032Z,0.00
2023-02-08T04:55:40.634Z,0.00
2023-02-08T04:56:40.625Z,0.00
2023-02-08T04:57:40.577Z,0.00
2023-02-08T04:58:40.589Z,0.00
2023-02-08T04:59:40.568Z,0.00
2023-02-08T05:00:40.900Z,0.00
2023-02-08T05:01:40.619Z,0.00
2023-02-08T05:02:40.540Z,0.00
2023-02-08T05:03:40.537Z,0.00
2023-02-08T05:04:40.524Z,0.00
2023-02-08T05:05:40.502Z,0.00
2023-02-08T05:06:40.531Z,0.00
2023-02-08T05:07:40.473Z,0.00
2023-02-08T05:08:40.505Z,0.00
2023-02-08T05:09:40.479Z,0.00
2023-02-08T05:10:40.756Z,0.00
2023-02-08T05:11:40.444Z,0.00
2023-02-08T05:12:40.449Z,0.00
2023-02-08T05:13:40.426Z,0.00
2023-02-08T05:14:40.434Z,0.00
2023-02-08T05:15:40.398Z,0.00
2023-02-08T05:16:40.422Z,0.00
2023-02-08T05:17:40.386Z,0.00
2023-02-08T05:18:40.410Z,0.00
2023-02-08T05:19:40.354Z,0.00
2023-02-08T05:20:40.712Z,0.00
2023-02-08T05:21:40.355Z,0.00
2023-02-08T05:22:40.337Z,0.00
2023-02-08T05:23:40.346Z,0.00
2023-02-08T05:24:40.329Z,0.00
2023-02-08T05:25:40.305Z,0.00
2023-02-08T05:26:40.306Z,0.00
2023-02-08T05:27:40.277Z,0.00
2023-02-08T05:28:40.285Z,0.00
2023-02-08T05:29:40.288Z,0.00
2023-02-08T05:30:40.507Z,0.00
2023-02-08T05:31:40.352Z,0.00
2023-02-08T05:32:40.244Z,0.00
2023-02-08T05:33:40.288Z,0.00
2023-02-08T05:34:46.741Z,0.00
2023-02-08T05:35:40.201Z,0.00
2023-02-08T05:36:40.206Z,0.00
2023-02-08T05:37:40.202Z,0.00
2023-02-08T05:38:40.180Z,0.00
2023-02-08T05:39:40.195Z,0.00
2023-02-08T05:40:40.520Z,0.00
2023-02-08T05:41:40.133Z,0.00
2023-02-08T05:42:40.139Z,0.00
2023-02-08T05:43:40.124Z,0.00
2023-02-08T05:44:40.131Z,0.00
2023-02-08T05:45:40.209Z,0.00
2023-02-08T05:46:40.147Z,0.00
2023-02-08T05:47:40.099Z,0.00
2023-02-08T05:48:40.090Z,0.00
2023-02-08T05:49:40.064Z,0.00
2023-02-08T05:50:40.415Z,0.00
2023-02-08T05:51:40.389Z,0.00
2023-02-08T05:52:40.060Z,0.00
2023-02-08T05:53:40.016Z,0.00
2023-02-08T05:54:40.056Z,0.00
2023-02-08T05:55:40.001Z,0.00
2023-02-08T05:56:40.013Z,0.00
2023-02-08T05:57:40.013Z,0.00
2023-02-08T05:58:39.986Z,0.00
2023-02-08T05:59:39.971Z,0.00
2023-02-08T06:00:40.427Z,0.00
2023-02-08T06:01:39.944Z,0.00
2023-02-08T06:02:40.003Z,0.00
2023-02-08T06:03:39.928Z,0.00
2023-02-08T06:04:39.931Z,0.00
2023-02-08T06:05:39.969Z,0.00
2023-02-08T06:06:39.902Z,0.00
2023-02-08T06:07:39.921Z,0.00
2023-02-08T06:08:39.901Z,0.00
2023-02-08T06:09:39.866Z,0.00
2023-02-08T06:10:40.190Z,0.00
2023-02-08T06:11:39.853Z,0.00
2023-02-08T06:12:39.886Z,0.00
2023-02-08T06:13:39.821Z,0.00
2023-02-08T06:14:39.841Z,0.00
2023-02-08T06:15:39.818Z,0.00
2023-02-08T06:16:39.846Z,0.00
2023-02-08T06:17:39.791Z,0.00
2023-02-08T06:18:39.823Z,0.00
2023-02-08T06:19:39.812Z,0.00
2023-02-08T06:20:40.132Z,0.00
2023-02-08T06:21:39.743Z,0.00
2023-02-08T06:22:39.744Z,0.00
2023-02-08T06:23:39.710Z,1.00
2023-02-08T06:24:39.736Z,0.00
2023-02-08T06:25:39.732Z,0.00
2023-02-08T06:26:39.694Z,0.00
2023-02-08T06:27:39.721Z,0.00
2023-02-08T06:28:40.484Z,0.00
2023-02-08T06:29:39.666Z,0.00
2023-02-08T06:30:40.047Z,4.00
2023-02-08T06:31:39.704Z,3.00
2023-02-08T06:32:39.658Z,1.00
2023-02-08T06:33:39.559Z,1.00
2023-02-08T06:34:39.563Z,3.00
2023-02-08T06:35:39.573Z,2.00
2023-02-08T06:36:44.873Z,2.00
2023-02-08T06:37:39.549Z,3.00
2023-02-08T06:38:39.535Z,4.00
2023-02-08T06:39:39.506Z,4.00
2023-02-08T06:40:39.851Z,5.00
2023-02-08T06:41:39.540Z,10.00
2023-02-08T06:42:39.484Z,7.00
2023-02-08T06:43:39.507Z,10.00
2023-02-08T06:44:51.391Z,20.00
2023-02-08T06:45:39.585Z,18.00
2023-02-08T06:46:39.758Z,24.00
2023-02-08T06:47:39.435Z,31.00
2023-02-08T06:48:39.447Z,31.00
2023-02-08T06:49:39.437Z,37.00
2023-02-08T06:50:39.942Z,42.00
2023-02-08T06:51:39.409Z,51.00
2023-02-08T06:52:39.392Z,60.00
2023-02-08T06:53:39.420Z,68.00
2023-02-08T06:54:39.373Z,76.00
2023-02-08T06:55:39.353Z,82.00
2023-02-08T06:56:39.372Z,90.00
2023-02-08T06:57:39.342Z,110.00
2023-02-08T06:58:39.327Z,120.00
2023-02-08T06:59:39.351Z,130.00
2023-02-08T07:00:39.642Z,144.00
2023-02-08T07:01:39.291Z,157.00
2023-02-08T07:02:39.401Z,171.00
2023-02-08T07:03:39.292Z,187.00
2023-02-08T07:04:39.277Z,203.00
2023-02-08T07:05:39.270Z,220.00
2023-02-08T07:06:39.245Z,234.00
2023-02-08T07:07:39.246Z,252.00
2023-02-08T07:08:39.254Z,269.00
2023-02-08T07:09:39.252Z,291.00
2023-02-08T07:10:39.568Z,311.00
2023-02-08T07:11:39.213Z,331.00
2023-02-08T07:12:39.224Z,351.00
2023-02-08T07:13:39.174Z,371.00
2023-02-08T07:14:39.189Z,389.00
2023-02-08T07:15:39.187Z,407.00
2023-02-08T07:16:39.207Z,422.00
2023-02-08T07:17:39.162Z,444.00
2023-02-08T07:18:39.146Z,466.00
2023-02-08T07:19:39.124Z,488.00
2023-02-08T07:20:39.467Z,513.00
2023-02-08T07:21:39.137Z,535.00
2023-02-08T07:22:39.116Z,558.00
2023-02-08T07:23:39.909Z,573.00
2023-02-08T07:24:39.098Z,594.00
2023-02-08T07:25:39.049Z,608.00
2023-02-08T07:26:39.108Z,620.00
2023-02-08T07:27:39.047Z,628.00
2023-02-08T07:28:39.054Z,636.00
2023-02-08T07:29:39.026Z,649.00
2023-02-08T07:30:39.435Z,671.00
2023-02-08T07:31:39.025Z,700.00
2023-02-08T07:32:38.992Z,726.00
2023-02-08T07:33:38.988Z,753.00
2023-02-08T07:34:38.980Z,775.00
2023-02-08T07:35:38.976Z,794.00
2023-02-08T07:36:38.982Z,816.00
2023-02-08T07:37:38.963Z,832.00
2023-02-08T07:38:38.939Z,848.00
2023-02-08T07:39:38.928Z,865.00
2023-02-08T07:40:39.228Z,885.00
2023-02-08T07:41:38.892Z,906.00
2023-02-08T07:42:38.898Z,921.00
2023-02-08T07:43:38.910Z,930.00
2023-02-08T07:44:38.879Z,940.00
2023-02-08T07:45:38.893Z,960.00
2023-02-08T07:46:38.871Z,990.00
2023-02-08T07:47:38.853Z,1030.00
2023-02-08T07:48:40.359Z,1074.00
2023-02-08T07:49:38.826Z,1106.00
2023-02-08T07:50:39.113Z,1139.00
2023-02-08T07:51:38.812Z,1158.00
2023-02-08T07:52:38.853Z,1173.00
2023-02-08T07:53:38.786Z,1184.00
2023-02-08T07:54:38.782Z,1199.00
2023-02-08T07:55:38.794Z,1215.00
2023-02-08T07:56:38.777Z,1236.00
2023-02-08T07:57:38.753Z,1256.00
2023-02-08T07:58:38.732Z,1274.00
2023-02-08T07:59:38.728Z,1291.00
2023-02-08T08:00:39.079Z,1308.00
2023-02-08T08:01:38.741Z,1322.00
2023-02-08T08:02:38.737Z,1336.00
2023-02-08T08:03:38.748Z,1351.00
2023-02-08T08:04:38.686Z,1364.00
2023-02-08T08:05:38.677Z,1380.00
2023-02-08T08:06:38.648Z,1399.00
2023-02-08T08:07:38.650Z,1426.00
2023-02-08T08:08:38.655Z,1454.00
2023-02-08T08:09:38.628Z,1482.00
2023-02-08T08:10:38.983Z,1504.00
2023-02-08T08:11:38.598Z,1521.00
2023-02-08T08:12:38.602Z,1548.00
2023-02-08T08:13:38.593Z,1595.00
2023-02-08T08:14:38.570Z,1471.00
2023-02-08T08:15:38.580Z,1626.00
2023-02-08T08:16:38.571Z,1643.00
2023-02-08T08:17:38.556Z,1668.00
2023-02-08T08:18:38.538Z,1689.00
2023-02-08T08:19:38.524Z,1708.00
2023-02-08T08:20:38.857Z,1730.00
2023-02-08T08:21:38.508Z,1748.00
2023-02-08T08:22:38.560Z,1765.00
2023-02-08T08:23:38.489Z,1795.00
2023-02-08T08:24:38.474Z,1812.00
2023-02-08T08:25:38.466Z,1837.00
2023-02-08T08:26:38.460Z,1867.00
2023-02-08T08:27:38.468Z,1892.00
2023-02-08T08:28:38.478Z,1921.00
2023-02-08T08:29:38.437Z,1951.00
2023-02-08T08:30:38.582Z,1970.00
2023-02-08T08:31:38.427Z,1991.00
2023-02-08T08:32:38.471Z,2016.00
2023-02-08T08:33:38.384Z,2046.00
2023-02-08T08:34:38.367Z,2067.00
2023-02-08T08:35:38.367Z,2094.00
2023-02-08T08:36:38.361Z,2122.00
2023-02-08T08:37:38.434Z,2140.00
2023-02-08T08:38:38.329Z,2173.00
2023-02-08T08:39:38.324Z,2195.00
2023-02-08T08:40:38.617Z,2222.00
2023-02-08T08:41:38.315Z,2248.00
2023-02-08T08:42:38.284Z,2267.00
2023-02-08T08:43:38.296Z,2297.00
2023-02-08T08:44:38.313Z,2320.00
2023-02-08T08:45:38.298Z,2418.00
2023-02-08T08:46:38.349Z,2426.00
2023-02-08T08:47:38.242Z,2256.00
2023-02-08T08:48:38.310Z,2330.00
2023-02-08T08:49:38.250Z,2437.00
2023-02-08T08:50:38.631Z,2605.00
2023-02-08T08:51:38.232Z,2444.00
2023-02-08T08:52:38.201Z,2325.00
2023-02-08T08:53:38.184Z,2414.00
2023-02-08T08:54:38.247Z,2463.00
2023-02-08T08:55:38.153Z,2504.00
2023-02-08T08:56:38.156Z,2554.00
2023-02-08T08:57:38.181Z,2559.00
2023-02-08T08:58:38.143Z,2597.00
2023-02-08T08:59:38.165Z,2635.00
2023-02-08T09:00:38.100Z,2665.00
2023-02-08T09:01:38.139Z,2678.00
2023-02-08T09:02:38.080Z,2959.00
2023-02-08T09:03:38.137Z,2367.00
2023-02-08T09:04:38.098Z,2711.00
2023-02-08T09:05:38.077Z,2765.00
2023-02-08T09:06:38.040Z,2791.00
2023-02-08T09:07:38.064Z,2805.00
2023-02-08T09:08:38.016Z,2830.00
2023-02-08T09:09:38.026Z,2834.00
2023-02-08T09:10:38.064Z,2854.00
2023-02-08T09:11:37.986Z,2879.00
2023-02-08T09:12:38.039Z,2890.00
2023-02-08T09:13:37.980Z,2911.00
2023-02-08T09:14:37.948Z,2931.00
2023-02-08T09:15:37.974Z,2943.00
2023-02-08T09:16:37.967Z,2965.00
2023-02-08T09:17:37.955Z,2976.00
2023-02-08T09:18:37.938Z,2998.00
2023-02-08T09:19:38.017Z,3003.00
2023-02-08T09:20:37.889Z,3019.00
2023-02-08T09:21:37.945Z,3042.00
2023-02-08T09:22:37.898Z,3057.00
2023-02-08T09:23:37.889Z,3073.00
2023-02-08T09:24:37.846Z,3088.00
2023-02-08T09:25:37.872Z,3099.00
2023-02-08T09:26:37.852Z,2668.00
2023-02-08T09:27:37.847Z,1423.00
2023-02-08T09:28:37.894Z,8005.00
2023-02-08T09:29:37.826Z,10351.00
2023-02-08T09:30:37.803Z,6602.00
2023-02-08T09:31:38.055Z,3542.00
2023-02-08T09:32:37.799Z,3590.00
2023-02-08T09:33:37.800Z,3492.00
2023-02-08T09:34:37.754Z,2904.00
2023-02-08T09:35:37.763Z,1938.00
2023-02-08T09:36:37.728Z,14009.00
2023-02-08T09:37:37.730Z,12762.00
2023-02-08T09:38:37.738Z,10629.00
2023-02-08T09:39:37.729Z,8604.00
2023-02-08T09:40:37.692Z,7238.00
2023-02-08T09:41:37.696Z,12132.00
2023-02-08T09:42:37.669Z,8160.00
2023-02-08T09:43:37.676Z,14594.00
2023-02-08T09:44:37.676Z,9841.00
2023-02-08T09:45:38.605Z,5086.00
2023-02-08T09:46:37.652Z,4401.00
2023-02-08T09:47:37.754Z,8786.00
2023-02-08T09:48:37.624Z,6526.00
2023-02-08T09:49:37.650Z,3655.00
2023-02-08T09:50:37.591Z,3514.00
2023-02-08T09:51:37.650Z,3539.00
2023-02-08T09:52:37.561Z,3545.00
2023-02-08T09:53:37.562Z,3867.00
2023-02-08T09:54:37.548Z,4264.00
2023-02-08T09:55:37.595Z,4104.00
2023-02-08T09:56:37.522Z,2518.00
2023-02-08T09:57:37.519Z,4634.00
2023-02-08T09:58:37.504Z,6848.00
2023-02-08T09:59:37.496Z,3815.00
2023-02-08T10:00:37.552Z,4434.00
2023-02-08T10:01:37.478Z,4803.00
2023-02-08T10:02:37.470Z,3748.00
2023-02-08T10:03:37.530Z,3583.00
2023-02-08T10:04:37.440Z,3583.00
2023-02-08T10:05:37.464Z,3101.00
2023-02-08T10:06:37.430Z,4366.00
2023-02-08T10:07:37.438Z,3612.00
2023-02-08T10:08:37.428Z,2176.00
2023-02-08T10:09:37.473Z,7010.00
2023-02-08T10:10:37.861Z,19088.00
2023-02-08T10:11:37.374Z,16675.00
2023-02-08T10:12:37.378Z,11186.00
2023-02-08T10:13:41.665Z,12357.00
2023-02-08T10:14:37.377Z,12022.00
2023-02-08T10:15:37.400Z,13143.00
2023-02-08T10:16:37.348Z,11325.00
2023-02-08T10:17:37.321Z,7709.00
2023-02-08T10:18:37.321Z,7423.00
2023-02-08T10:19:37.280Z,8462.00
2023-02-08T10:20:37.298Z,9544.00
2023-02-08T10:21:37.317Z,6275.00
2023-02-08T10:22:37.310Z,5754.00
2023-02-08T10:23:37.272Z,4952.00
2023-02-08T10:24:37.238Z,2684.00
2023-02-08T10:25:37.238Z,2731.00
2023-02-08T10:26:37.211Z,6603.00
2023-02-08T10:27:37.256Z,21001.00
2023-02-08T10:28:37.261Z,27273.00
2023-02-08T10:29:37.183Z,23289.00
2023-02-08T10:30:37.195Z,12101.00
2023-02-08T10:31:37.190Z,4625.00
2023-02-08T10:32:37.187Z,3764.00
2023-02-08T10:33:37.140Z,7653.00
2023-02-08T10:34:37.132Z,21893.00
2023-02-08T10:35:37.300Z,32065.00
2023-02-08T10:36:37.089Z,33303.00
2023-02-08T10:37:37.113Z,24836.00
2023-02-08T10:38:46.477Z,31052.00
2023-02-08T10:39:37.072Z,33202.00
2023-02-08T10:40:37.060Z,27293.00
2023-02-08T10:41:37.058Z,21038.00
2023-02-08T10:42:37.034Z,22371.00
2023-02-08T10:43:37.048Z,16557.00
2023-02-08T10:44:37.025Z,6095.00
2023-02-08T10:45:37.020Z,11825.00
2023-02-08T10:46:37.010Z,18240.00
2023-02-08T10:47:36.988Z,22528.00
2023-02-08T10:48:37.001Z,23553.00
2023-02-08T10:49:36.990Z,25641.00
2023-02-08T10:50:36.942Z,35152.00
2023-02-08T10:51:36.955Z,32284.00
2023-02-08T10:52:36.916Z,24254.00
2023-02-08T10:53:36.954Z,40556.00
2023-02-08T10:54:37.037Z,34855.00
2023-02-08T10:55:36.897Z,18144.00
2023-02-08T10:56:36.885Z,3390.00
2023-02-08T10:57:36.917Z,23597.00
2023-02-08T10:58:36.866Z,33153.00
2023-02-08T10:59:36.857Z,8781.00
2023-02-08T11:00:36.853Z,12050.00
2023-02-08T11:01:36.844Z,28317.00
2023-02-08T11:02:36.943Z,34983.00
2023-02-08T11:03:36.806Z,22483.00
2023-02-08T11:04:36.784Z,15046.00
2023-02-08T11:05:36.854Z,15133.00
2023-02-08T11:06:36.764Z,8867.00
2023-02-08T11:07:37.176Z,2260.00
2023-02-08T11:08:36.747Z,8007.00
2023-02-08T11:09:36.765Z,25527.00
2023-02-08T11:10:36.787Z,14425.00
2023-02-08T11:11:36.716Z,12685.00
2023-02-08T11:12:36.707Z,29903.00
2023-02-08T11:13:36.947Z,33550.00
2023-02-08T11:14:46.768Z,27567.00
2023-02-08T11:15:36.687Z,70094.00
2023-02-08T11:16:36.717Z,33957.00
2023-02-08T11:17:36.689Z,22891.00
2023-02-08T11:18:36.674Z,22642.00
2023-02-08T11:19:36.731Z,20124.00
2023-02-08T11:20:36.651Z,73447.00
2023-02-08T11:21:36.714Z,74351.00
2023-02-08T11:22:36.597Z,74876.00
2023-02-08T11:23:36.594Z,74841.00
2023-02-08T11:24:36.573Z,73972.00
2023-02-08T11:25:36.588Z,73469.00
2023-02-08T11:26:36.557Z,73651.00
2023-02-08T11:27:36.619Z,74296.00
2023-02-08T11:28:36.534Z,75254.00
2023-02-08T11:29:36.530Z,76498.00
2023-02-08T11:30:36.536Z,76165.00
2023-02-08T11:31:36.896Z,74327.00
2023-02-08T11:32:36.482Z,75722.00
2023-02-08T11:33:36.499Z,77042.00
2023-02-08T11:34:36.464Z,77175.00
2023-02-08T11:35:36.480Z,77420.00
2023-02-08T11:36:36.452Z,75942.00
2023-02-08T11:37:36.486Z,74323.00
2023-02-08T11:38:36.439Z,77097.00
2023-02-08T11:39:36.438Z,78741.00
2023-02-08T11:40:36.440Z,77385.00
2023-02-08T11:41:37.756Z,77797.00
2023-02-08T11:42:36.402Z,78894.00
2023-02-08T11:43:36.388Z,77944.00
2023-02-08T11:44:36.371Z,77546.00
2023-02-08T11:45:36.442Z,79445.00
2023-02-08T11:46:36.344Z,79178.00
2023-02-08T11:47:36.351Z,76353.00
2023-02-08T11:48:36.332Z,75754.00
2023-02-08T11:49:36.369Z,75677.00
2023-02-08T11:50:36.308Z,69200.00
2023-02-08T11:51:36.305Z,35113.00
2023-02-08T11:52:36.340Z,14865.00
2023-02-08T11:53:36.334Z,10988.00
2023-02-08T11:54:36.261Z,36363.00
2023-02-08T11:55:36.290Z,14266.00
2023-02-08T11:56:36.283Z,5671.00
2023-02-08T11:57:36.268Z,20077.00
2023-02-08T11:58:36.221Z,27248.00
2023-02-08T11:59:36.219Z,73094.00
2023-02-08T12:00:36.204Z,68148.00
2023-02-08T12:01:36.205Z,33531.00
2023-02-08T12:02:36.256Z,28199.00
2023-02-08T12:03:36.288Z,20400.00
2023-02-08T12:04:36.160Z,77095.00
2023-02-08T12:05:36.178Z,75182.00
2023-02-08T12:06:36.148Z,76798.00
2023-02-08T12:07:36.134Z,78669.00
2023-02-08T12:08:36.121Z,75620.00
2023-02-08T12:09:38.209Z,65253.00
2023-02-08T12:10:36.106Z,27523.00
2023-02-08T12:11:36.104Z,8526.00
2023-02-08T12:12:36.079Z,2041.00
2023-02-08T12:13:36.081Z,4858.00
2023-02-08T12:14:36.082Z,16953.00
2023-02-08T12:15:45.003Z,32140.00
2023-02-08T12:16:36.198Z,17113.00
2023-02-08T12:17:36.072Z,4639.00
2023-02-08T12:18:36.021Z,1836.00
2023-02-08T12:19:36.063Z,4639.00
2023-02-08T12:20:36.007Z,39444.00
2023-02-08T12:21:35.992Z,34903.00
2023-02-08T12:22:35.970Z,26056.00
2023-02-08T12:23:35.976Z,22894.00
2023-02-08T12:24:35.986Z,32944.00
2023-02-08T12:25:35.951Z,78205.00
2023-02-08T12:26:35.940Z,70478.00
2023-02-08T12:27:35.925Z,34265.00
2023-02-08T12:28:35.924Z,21039.00
2023-02-08T12:29:47.492Z,76288.00
2023-02-08T12:30:35.918Z,81706.00
2023-02-08T12:31:35.947Z,78224.00
2023-02-08T12:32:35.874Z,64263.00
2023-02-08T12:33:35.874Z,21841.00
2023-02-08T12:34:35.873Z,10811.00
2023-02-08T12:35:57.334Z,16761.00
2023-02-08T12:36:35.871Z,3587.00
2023-02-08T12:37:35.872Z,7931.00
2023-02-08T12:38:35.803Z,73228.00
2023-02-08T12:39:35.805Z,71126.00
2023-02-08T12:40:35.789Z,71595.00